Time;durP1;ratioP1;P1;durP2;ratioP2;P2;SDS_P1;SDS_P2;PMS_P1;PMS_P2;Temp;Humidity;BMP_temperature;BMP_pressure;BME280_temperature;BME280_humidity;BME280_pressure;Samples;Min_cycle;Max_cycle;Signal;HPM_P1;HPM_P2
2021/03/31 00:00:24;;;;;;;1.70;1.33;;;;;;;2.29;65.88;94454.78;5033189;28;20032;-43
2021/03/31 00:02:57;;;;;;;1.52;1.42;;;;;;;2.24;65.13;94450.75;5033465;28;20108;-43
2021/03/31 00:05:23;;;;;;;3.03;2.40;;;;;;;2.40;64.66;94448.75;5033001;28;20049;-46
2021/03/31 00:07:49;;;;;;;2.25;2.15;;;;;;;2.35;64.94;94452.91;5033364;28;20508;-43
2021/03/31 00:10:36;;;;;;;1.20;1.20;;;;;;;1.94;66.19;94454.69;5032074;28;20178;-43
2021/03/31 00:13:02;;;;;;;1.13;1.13;;;;;;;1.78;66.20;94452.41;5032692;28;20452;-43
2021/03/31 00:15:28;;;;;;;0.60;0.60;;;;;;;1.92;65.72;94451.69;5032957;28;20550;-45
2021/03/31 00:17:53;;;;;;;0.28;0.28;;;;;;;2.03;65.35;94453.84;5033162;28;20018;-46
2021/03/31 00:20:19;;;;;;;0.68;0.68;;;;;;;1.89;65.68;94454.56;5032781;28;20413;-42
2021/03/31 00:22:44;;;;;;;1.02;1.00;;;;;;;1.93;66.05;94452.41;5033046;28;20017;-43
2021/03/31 00:25:12;;;;;;;1.27;1.17;;;;;;;1.69;67.17;94447.03;5032795;28;20487;-44
2021/03/31 00:27:38;;;;;;;1.65;1.55;;;;;;;1.58;67.29;94451.53;5032594;28;20108;-42
2021/03/31 00:30:06;;;;;;;0.30;0.30;;;;;;;1.59;67.65;94442.91;5037391;28;20035;-43
2021/03/31 00:32:32;;;;;;;0.77;0.77;;;;;;;1.49;67.66;94444.94;5040340;28;20025;-43
2021/03/31 00:34:57;;;;;;;0.30;0.30;;;;;;;1.54;67.61;94441.56;5042501;28;20402;-43
2021/03/31 00:37:23;;;;;;;1.13;0.85;;;;;;;1.57;67.80;94441.84;5040012;28;20405;-46
2021/03/31 00:39:48;;;;;;;0.35;0.35;;;;;;;1.57;67.71;94439.13;5040758;28;20017;-45
2021/03/31 00:42:13;;;;;;;0.82;0.82;;;;;;;1.58;67.91;94432.50;5042261;28;20444;-42
2021/03/31 00:44:39;;;;;;;0.60;0.60;;;;;;;1.43;67.46;94425.03;5040147;28;20486;-42
2021/03/31 00:47:04;;;;;;;3.53;1.13;;;;;;;1.34;67.66;94436.00;5041187;28;20108;-43
2021/03/31 00:49:30;;;;;;;0.77;0.77;;;;;;;1.34;68.08;94441.44;5041443;28;20025;-44
2021/03/31 00:51:55;;;;;;;0.43;0.43;;;;;;;1.45;67.27;94443.63;5039786;28;20041;-45
2021/03/31 00:54:21;;;;;;;0.65;0.65;;;;;;;1.32;67.15;94427.53;5041099;28;20091;-43
2021/03/31 00:56:46;;;;;;;0.50;0.50;;;;;;;1.47;67.79;94439.22;5040769;28;20132;-48
2021/03/31 00:59:12;;;;;;;0.35;0.35;;;;;;;1.48;67.37;94435.28;5044289;28;20044;-39
2021/03/31 01:01:38;;;;;;;1.10;1.10;;;;;;;1.47;67.73;94436.50;5046869;28;20020;-41
2021/03/31 01:04:03;;;;;;;3.33;1.90;;;;;;;1.52;67.24;94430.41;5015610;28;20045;-41
2021/03/31 01:06:29;;;;;;;1.80;1.65;;;;;;;1.56;67.09;94429.50;5015122;28;20105;-46
2021/03/31 01:08:54;;;;;;;0.30;0.30;;;;;;;1.68;66.93;94429.22;5012660;28;20045;-42
2021/03/31 01:11:55;;;;;;;0.75;0.75;;;;;;;1.53;66.93;94434.66;5013128;28;20025;-44
2021/03/31 01:14:48;;;;;;;0.82;0.82;;;;;;;1.66;67.42;94428.19;5011838;28;20116;-42
2021/03/31 01:17:26;;;;;;;0.68;0.68;;;;;;;1.81;67.74;94429.69;5013183;28;20134;-43
2021/03/31 01:20:12;;;;;;;0.50;0.50;;;;;;;1.95;66.61;94425.50;5012042;28;20406;-43
2021/03/31 01:23:08;;;;;;;1.05;0.57;;;;;;;1.97;66.29;94439.38;5002149;28;20037;-45
2021/03/31 01:25:40;;;;;;;0.50;0.50;;;;;;;1.87;66.43;94421.63;5011925;28;20105;-43
2021/03/31 01:28:08;;;;;;;0.47;0.47;;;;;;;1.82;67.41;94414.13;5011540;28;20024;-43
2021/03/31 01:31:00;;;;;;;2.67;2.47;;;;;;;1.82;67.09;94411.41;5012699;28;20037;-42
2021/03/31 01:33:53;;;;;;;3.53;2.33;;;;;;;1.88;66.67;94410.28;4982167;28;20049;-45
2021/03/31 01:36:20;;;;;;;1.45;1.35;;;;;;;1.57;67.21;94415.41;5012882;28;20038;-46
2021/03/31 01:38:52;;;;;;;0.73;0.73;;;;;;;1.12;68.16;94413.06;5011677;28;20406;-43
2021/03/31 01:41:18;;;;;;;0.28;0.28;;;;;;;0.95;69.61;94420.88;5009933;28;20109;-42
2021/03/31 01:43:46;;;;;;;4.22;1.67;;;;;;;0.91;69.91;94423.00;5011572;28;20041;-42
2021/03/31 01:46:12;;;;;;;0.68;0.68;;;;;;;0.83;70.31;94423.81;5011249;28;20029;-42
2021/03/31 01:48:37;;;;;;;0.28;0.28;;;;;;;0.88;70.66;94415.78;5012363;28;20034;-41
2021/03/31 01:51:06;;;;;;;0.60;0.60;;;;;;;1.09;70.00;94413.97;5012528;28;20033;-45
2021/03/31 01:53:32;;;;;;;3.63;1.70;;;;;;;1.02;69.51;94401.47;5012256;28;20045;-43
2021/03/31 01:55:59;;;;;;;0.60;0.60;;;;;;;1.11;68.13;94412.28;5011057;28;20419;-42
2021/03/31 01:58:26;;;;;;;2.08;1.20;;;;;;;1.09;68.61;94416.69;5012103;28;20029;-45
2021/03/31 02:00:51;;;;;;;1.55;1.02;;;;;;;1.18;67.91;94414.66;5011281;28;20028;-42
2021/03/31 02:03:18;;;;;;;0.82;0.82;;;;;;;1.27;67.65;94402.97;5012369;28;20033;-45
2021/03/31 02:05:45;;;;;;;0.30;0.30;;;;;;;0.94;68.58;94405.75;5010768;28;20068;-42
2021/03/31 02:08:11;;;;;;;0.70;0.70;;;;;;;0.89;69.47;94409.13;5010843;28;20029;-45
2021/03/31 02:10:37;;;;;;;1.55;1.45;;;;;;;0.96;68.90;94402.56;5010842;28;20206;-41
2021/03/31 02:13:04;;;;;;;0.52;0.52;;;;;;;0.77;69.18;94410.88;5012173;28;20029;-43
2021/03/31 02:15:30;;;;;;;1.75;0.70;;;;;;;0.84;69.13;94409.00;5011147;28;20037;-41
2021/03/31 02:17:57;;;;;;;0.50;0.50;;;;;;;0.88;68.83;94396.75;5010674;28;20041;-42
2021/03/31 02:20:23;;;;;;;2.30;1.55;;;;;;;0.96;69.67;94402.56;5011019;28;20061;-42
2021/03/31 02:22:50;;;;;;;1.88;0.95;;;;;;;0.91;69.78;94406.69;5012131;28;20053;-43
2021/03/31 02:25:15;;;;;;;0.73;0.73;;;;;;;1.13;68.55;94403.66;5012128;28;20029;-42
2021/03/31 02:27:41;;;;;;;0.30;0.30;;;;;;;1.26;68.40;94402.19;5012119;28;20160;-45
2021/03/31 02:30:10;;;;;;;1.52;1.42;;;;;;;0.96;68.50;94408.00;5010879;28;20026;-43
2021/03/31 02:32:36;;;;;;;0.43;0.43;;;;;;;0.95;69.01;94393.69;5011998;28;20033;-47
2021/03/31 02:35:03;;;;;;;0.85;0.85;;;;;;;0.97;68.49;94396.69;5011801;28;20610;-46
2021/03/31 02:37:28;;;;;;;0.40;0.40;;;;;;;0.65;69.68;94394.78;5012037;28;20025;-45
2021/03/31 02:39:55;;;;;;;0.82;0.82;;;;;;;0.82;70.14;94406.00;5010812;28;20406;-42
2021/03/31 02:42:25;;;;;;;1.52;1.42;;;;;;;0.77;70.30;94400.00;5010522;28;20037;-42
2021/03/31 02:44:53;;;;;;;0.50;0.35;;;;;;;0.74;70.12;94397.44;5011655;28;20064;-42
2021/03/31 02:47:21;;;;;;;0.87;0.87;;;;;;;0.79;69.77;94404.97;5010868;28;20033;-42
2021/03/31 02:49:48;;;;;;;0.98;0.98;;;;;;;0.80;69.44;94397.56;5010390;28;20112;-41
2021/03/31 02:52:16;;;;;;;1.02;1.02;;;;;;;0.66;70.13;94391.59;5010671;28;20030;-40
2021/03/31 02:54:42;;;;;;;3.70;1.75;;;;;;;0.76;69.97;94398.47;5010760;28;20080;-40
2021/03/31 02:57:11;;;;;;;1.17;1.17;;;;;;;0.94;70.19;94397.59;5010730;28;20030;-40
2021/03/31 02:59:42;;;;;;;;;;;;;;;0.92;69.42;94402.75;5012338;28;20030;-45
2021/03/31 03:02:08;;;;;;;3.97;1.75;;;;;;;0.85;69.16;94396.91;5011449;28;20390;-46
2021/03/31 03:04:34;;;;;;;0.30;0.30;;;;;;;0.81;70.12;94399.06;5010213;28;20060;-45
2021/03/31 03:07:00;;;;;;;0.68;0.68;;;;;;;0.86;70.48;94407.34;5010350;28;20113;-45
2021/03/31 03:09:26;;;;;;;0.20;0.20;;;;;;;0.91;68.89;94401.25;5011145;28;20034;-45
2021/03/31 03:11:52;;;;;;;0.40;0.40;;;;;;;0.99;68.57;94405.13;5009122;28;20033;-46
2021/03/31 03:14:18;;;;;;;1.50;1.48;;;;;;;1.04;69.09;94395.59;5011670;28;20025;-48
2021/03/31 03:16:44;;;;;;;0.50;0.50;;;;;;;1.04;69.53;94390.88;5010510;28;20034;-47
2021/03/31 03:19:09;;;;;;;1.92;1.30;;;;;;;1.12;69.73;94394.78;5011358;28;20026;-45
2021/03/31 03:21:37;;;;;;;0.75;0.75;;;;;;;1.18;68.32;94386.72;5011656;28;20022;-46
2021/03/31 03:24:03;;;;;;;0.93;0.93;;;;;;;0.99;69.06;94393.50;5011286;28;20034;-47
2021/03/31 03:26:29;;;;;;;1.05;1.05;;;;;;;0.95;69.65;94382.81;5011588;28;20029;-45
2021/03/31 03:28:54;;;;;;;1.98;1.85;;;;;;;1.02;69.39;94393.31;5010214;28;20030;-44
2021/03/31 03:31:20;;;;;;;7.88;2.58;;;;;;;0.92;69.12;94400.03;5013676;28;20034;-47
2021/03/31 03:33:45;;;;;;;1.50;1.50;;;;;;;0.90;69.46;94402.47;5013664;28;20038;-44
2021/03/31 03:36:13;;;;;;;0.50;0.50;;;;;;;0.88;69.33;94396.00;5014020;28;20034;-47
2021/03/31 03:38:38;;;;;;;2.58;2.38;;;;;;;0.89;68.96;94398.25;5014455;28;20553;-48
2021/03/31 03:41:09;;;;;;;0.75;0.75;;;;;;;0.77;69.97;94399.22;5014977;28;20092;-46
2021/03/31 03:43:38;;;;;;;1.23;1.23;;;;;;;0.78;70.48;94406.16;5014920;28;20029;-49
2021/03/31 03:46:03;;;;;;;;;;;;;;;0.53;70.96;94403.91;5015304;28;20395;-50
2021/03/31 03:48:29;;;;;;;1.27;1.27;;;;;;;0.41;71.61;94405.59;5013701;28;19910;-47
2021/03/31 03:50:54;;;;;;;0.30;0.30;;;;;;;0.57;71.13;94401.75;5014446;28;20395;-49
2021/03/31 03:53:20;;;;;;;2.10;1.95;;;;;;;0.77;70.80;94382.94;5013634;28;20026;-46
2021/03/31 03:55:46;;;;;;;1.15;1.15;;;;;;;0.93;70.25;94400.81;5014448;28;20021;-48
2021/03/31 03:58:12;;;;;;;1.20;1.20;;;;;;;0.90;71.25;94394.31;5014384;28;20109;-48
2021/03/31 04:00:37;;;;;;;5.82;0.82;;;;;;;0.96;71.14;94384.31;5014655;28;20117;-47
2021/03/31 04:03:03;;;;;;;0.65;0.65;;;;;;;1.08;70.96;94401.59;5014564;28;20033;-47
2021/03/31 04:05:29;;;;;;;0.60;0.60;;;;;;;1.25;69.99;94398.00;5031890;28;20107;-50
2021/03/31 04:07:55;;;;;;;1.35;1.25;;;;;;;1.29;69.74;94404.00;5034243;28;20029;-47
2021/03/31 04:10:23;;;;;;;1.20;1.20;;;;;;;1.12;70.18;94391.28;5034118;28;20055;-47
2021/03/31 04:12:50;;;;;;;6.63;2.22;;;;;;;1.15;70.72;94393.09;5016664;28;20087;-45
2021/03/31 04:15:16;;;;;;;1.48;1.30;;;;;;;1.00;70.98;94400.44;5034035;28;20045;-45
2021/03/31 04:17:43;;;;;;;1.13;1.13;;;;;;;0.90;71.27;94404.44;5016357;28;20410;-43
2021/03/31 04:20:11;;;;;;;2.92;2.65;;;;;;;1.13;70.97;94392.78;5016149;28;20029;-42
2021/03/31 04:22:37;;;;;;;2.97;2.85;;;;;;;1.21;70.12;94393.94;5045382;28;20059;-43
2021/03/31 04:25:04;;;;;;;2.38;2.20;;;;;;;1.25;70.38;94403.44;5036030;28;20489;-43
2021/03/31 04:27:29;;;;;;;1.25;1.25;;;;;;;1.12;71.12;94402.16;5053783;28;20028;-42
2021/03/31 04:29:55;;;;;;;1.35;1.35;;;;;;;1.17;70.43;94406.97;5025354;28;20403;-44
2021/03/31 04:32:22;;;;;;;0.77;0.77;;;;;;;1.36;69.98;94394.72;5025876;28;20525;-43
2021/03/31 04:34:47;;;;;;;0.73;0.73;;;;;;;1.50;70.26;94400.19;5024150;28;20040;-42
2021/03/31 04:37:15;;;;;;;1.77;1.67;;;;;;;1.44;70.78;94401.31;5046286;28;20021;-42
2021/03/31 04:39:41;;;;;;;8.43;2.93;;;;;;;1.50;71.22;94397.47;5051684;28;20110;-42
2021/03/31 04:42:08;;;;;;;4.38;1.58;;;;;;;1.45;70.58;94387.22;5032193;28;20460;-42
2021/03/31 04:44:33;;;;;;;0.73;0.73;;;;;;;1.69;70.22;94400.75;5043137;28;20070;-43
2021/03/31 04:47:00;;;;;;;1.17;1.08;;;;;;;1.86;69.66;94398.34;5052017;28;20029;-43
2021/03/31 04:49:25;;;;;;;1.40;1.40;;;;;;;1.69;70.33;94405.47;5052655;28;20047;-43
2021/03/31 04:51:51;;;;;;;0.85;0.77;;;;;;;1.74;70.43;94402.09;5046056;28;20461;-43
2021/03/31 04:54:16;;;;;;;0.98;0.98;;;;;;;1.80;69.95;94400.97;5030606;28;20037;-44
2021/03/31 04:56:42;;;;;;;0.57;0.57;;;;;;;2.00;69.58;94411.19;5040663;28;20032;-45
2021/03/31 04:59:07;;;;;;;7.43;2.53;;;;;;;2.17;69.63;94402.09;5041868;28;20503;-44
2021/03/31 05:01:33;;;;;;;1.92;1.83;;;;;;;2.43;69.26;94402.22;5049488;28;20033;-43
2021/03/31 05:03:58;;;;;;;1.50;1.40;;;;;;;2.47;68.33;94402.78;5049540;28;20048;-41
2021/03/31 05:06:24;;;;;;;1.02;1.02;;;;;;;2.38;69.66;94411.09;5050126;28;20063;-41
2021/03/31 05:08:49;;;;;;;2.05;1.85;;;;;;;2.66;68.90;94406.03;5050395;28;20028;-41
2021/03/31 05:11:14;;;;;;;2.20;1.95;;;;;;;2.83;69.06;94402.31;5050131;28;20116;-44
2021/03/31 05:13:40;;;;;;;6.28;2.30;;;;;;;2.90;67.95;94412.09;5049612;28;20035;-41
2021/03/31 05:16:05;;;;;;;0.73;0.73;;;;;;;2.95;67.89;94409.41;5049691;28;20533;-41
2021/03/31 05:18:31;;;;;;;1.15;1.15;;;;;;;2.97;68.27;94412.41;5049848;28;20547;-41
2021/03/31 05:20:56;;;;;;;0.68;0.68;;;;;;;3.27;67.26;94415.75;5047885;28;20086;-43
2021/03/31 05:23:22;;;;;;;0.90;0.90;;;;;;;3.43;67.46;94412.50;5040707;28;20029;-41
2021/03/31 05:25:48;;;;;;;1.23;1.13;;;;;;;3.53;66.74;94411.09;5043524;28;20032;-45
2021/03/31 05:28:13;;;;;;;0.93;0.73;;;;;;;3.71;66.57;94412.78;5048012;28;20032;-44
2021/03/31 05:30:39;;;;;;;1.52;1.50;;;;;;;3.91;65.01;94403.78;5054048;28;20520;-41
2021/03/31 05:33:04;;;;;;;1.45;1.42;;;;;;;4.07;64.31;94411.41;5048347;28;20031;-44
2021/03/31 05:35:30;;;;;;;0.90;0.90;;;;;;;4.06;64.37;94410.66;5049619;28;20099;-45
2021/03/31 05:37:55;;;;;;;2.35;1.58;;;;;;;4.00;64.73;94409.84;5034521;28;20026;-45
2021/03/31 05:40:21;;;;;;;1.23;1.13;;;;;;;4.16;64.57;94403.78;5029297;28;20033;-44
2021/03/31 05:42:47;;;;;;;1.75;1.70;;;;;;;4.15;64.61;94407.75;5044592;28;20036;-49
2021/03/31 05:45:13;;;;;;;3.03;2.75;;;;;;;4.05;64.37;94405.69;5047417;28;20033;-48
2021/03/31 05:47:43;;;;;;;4.15;3.80;;;;;;;4.45;64.46;94408.25;5049243;28;20040;-46
2021/03/31 05:50:15;;;;;;;2.60;2.33;;;;;;;4.82;63.17;94408.25;5034498;28;20107;-49
2021/03/31 05:52:41;;;;;;;9.60;4.88;;;;;;;4.95;61.76;94406.59;5028544;28;20083;-44
2021/03/31 05:55:09;;;;;;;8.13;6.07;;;;;;;5.03;61.66;94407.63;5035432;28;20033;-46
2021/03/31 05:57:35;;;;;;;6.75;6.28;;;;;;;4.99;62.32;94404.38;5048636;28;20033;-44
2021/03/31 06:00:05;;;;;;;2.80;2.55;;;;;;;5.00;62.17;94405.13;5039623;28;20035;-45
2021/03/31 06:02:31;;;;;;;0.70;0.70;;;;;;;4.72;63.05;94402.22;5039759;28;20028;-50
2021/03/31 06:04:56;;;;;;;2.50;1.92;;;;;;;4.22;64.53;94407.31;5034927;28;20057;-48
2021/03/31 06:07:22;;;;;;;3.45;2.15;;;;;;;4.40;65.44;94396.03;5014341;28;20026;-48
2021/03/31 06:10:06;;;;;;;2.80;2.63;;;;;;;4.55;65.64;94404.06;5028959;28;20022;-45
2021/03/31 06:12:33;;;;;;;2.70;2.53;;;;;;;4.67;65.04;94389.25;5028661;28;20473;-45
2021/03/31 06:15:11;;;;;;;1.98;1.88;;;;;;;4.70;65.44;94390.28;5030105;28;20271;-47
2021/03/31 06:17:54;;;;;;;1.95;1.30;;;;;;;4.68;65.20;94404.41;5036786;28;20099;-44
2021/03/31 06:26:32;;;;;;;1.25;1.20;;;;;;;5.35;64.43;94395.34;5044239;28;20053;-40
2021/03/31 06:29:01;;;;;;;1.20;1.20;;;;;;;5.61;63.13;94395.16;5046481;28;20033;-41
2021/03/31 06:31:32;;;;;;;2.25;2.08;;;;;;;5.57;64.06;94385.69;5048450;28;20036;-42
2021/03/31 06:34:08;;;;;;;3.80;2.25;;;;;;;5.73;62.49;94385.00;5048320;28;20067;-46
2021/03/31 06:36:38;;;;;;;3.05;2.85;;;;;;;5.90;62.21;94394.03;5021702;28;20022;-43
2021/03/31 06:39:20;;;;;;;2.30;2.20;;;;;;;5.79;60.84;94383.00;5031135;28;20052;-45
2021/03/31 06:41:59;;;;;;;1.42;1.33;;;;;;;5.67;60.69;94385.00;5039229;28;20013;-44
2021/03/31 06:45:04;;;;;;;1.03;1.03;;;;;;;5.89;61.61;94376.09;5028695;28;20477;-43
2021/03/31 06:50:04;;;;;;;1.45;1.42;;;;;;;5.70;63.16;94389.47;5034291;28;20394;-44
2021/03/31 06:52:30;;;;;;;0.52;0.52;;;;;;;6.03;61.03;94386.84;5028709;28;20033;-43
2021/03/31 06:55:03;;;;;;;2.45;2.33;;;;;;;6.38;55.75;94385.59;5028860;28;20022;-43
2021/03/31 06:57:31;;;;;;;3.10;2.80;;;;;;;6.65;55.18;94387.56;5028170;28;20021;-45
2021/03/31 07:00:07;;;;;;;1.85;1.75;;;;;;;6.79;53.77;94395.56;5028519;28;20821;-43
2021/03/31 07:02:33;;;;;;;1.15;1.15;;;;;;;6.84;54.35;94381.06;5039601;28;20508;-42
2021/03/31 07:04:59;;;;;;;1.15;1.10;;;;;;;7.03;51.67;94386.78;5040202;28;20051;-42
2021/03/31 07:07:35;;;;;;;0.93;0.93;;;;;;;7.17;53.41;94382.97;5046545;28;20036;-42
2021/03/31 07:10:09;;;;;;;1.35;1.25;;;;;;;7.33;53.60;94375.94;5046011;28;20040;-43
2021/03/31 07:12:48;;;;;;;1.92;1.80;;;;;;;7.51;51.49;94378.13;5042860;28;20021;-45
2021/03/31 07:15:26;;;;;;;1.55;1.30;;;;;;;7.71;52.33;94383.25;5031965;28;20033;-42
2021/03/31 07:17:56;;;;;;;3.58;1.85;;;;;;;7.89;52.49;94377.19;5040947;28;20509;-43
2021/03/31 07:20:24;;;;;;;1.25;1.15;;;;;;;7.91;50.90;94380.16;5051517;28;20040;-43
2021/03/31 07:22:49;;;;;;;1.30;1.25;;;;;;;7.98;48.67;94385.13;5051752;28;20024;-43
2021/03/31 07:25:16;;;;;;;1.75;1.55;;;;;;;8.18;49.04;94381.25;5051776;28;20039;-44
2021/03/31 07:27:45;;;;;;;1.08;1.08;;;;;;;8.34;47.42;94388.66;5040248;28;20029;-45
2021/03/31 07:30:15;;;;;;;1.52;1.38;;;;;;;8.10;47.31;94383.06;5036324;28;20037;-43
2021/03/31 07:32:44;;;;;;;0.52;0.52;;;;;;;8.46;46.90;94392.09;5031820;28;20481;-43
2021/03/31 07:35:11;;;;;;;0.90;0.90;;;;;;;8.78;44.99;94374.53;5031838;28;20506;-47
2021/03/31 07:37:37;;;;;;;1.48;0.50;;;;;;;9.18;44.43;94366.63;5031477;28;20116;-45
2021/03/31 07:40:09;;;;;;;0.65;0.60;;;;;;;9.73;43.60;94388.03;5050916;28;20033;-45
2021/03/31 07:42:36;;;;;;;1.38;1.27;;;;;;;10.23;42.36;94379.09;5031798;28;20025;-45
2021/03/31 07:45:07;;;;;;;0.73;0.73;;;;;;;10.23;40.17;94382.59;5021183;28;20079;-45
2021/03/31 07:47:33;;;;;;;1.25;1.25;;;;;;;11.13;39.39;94377.88;5031655;28;20037;-48
2021/03/31 07:49:59;;;;;;;1.02;1.02;;;;;;;13.02;37.33;94360.69;5031418;28;20025;-45
2021/03/31 07:52:51;;;;;;;0.80;0.68;;;;;;;13.67;36.11;94373.34;5030714;28;20486;-47
2021/03/31 07:55:40;;;;;;;1.17;1.13;;;;;;;14.75;34.48;94383.00;5045351;28;20049;-47
2021/03/31 07:58:25;;;;;;;1.05;1.00;;;;;;;17.21;30.38;94361.09;5033701;28;20112;-48
2021/03/31 08:01:03;;;;;;;1.48;1.38;;;;;;;18.34;26.14;94367.59;5051119;28;20043;-43
2021/03/31 08:03:30;;;;;;;1.45;1.38;;;;;;;20.12;24.06;94349.09;5046098;28;20057;-47
2021/03/31 08:06:06;;;;;;;3.70;2.53;;;;;;;21.60;22.83;94352.56;5041514;28;20037;-44
2021/03/31 08:08:33;;;;;;;0.70;0.68;;;;;;;20.85;22.79;94363.50;5042738;28;20025;-47
2021/03/31 08:10:59;;;;;;;2.97;1.35;;;;;;;19.39;23.72;94356.97;5050849;28;20029;-46
2021/03/31 08:13:32;;;;;;;1.08;1.08;;;;;;;20.93;24.17;94358.47;5047888;28;20064;-47
2021/03/31 08:16:00;;;;;;;2.65;2.10;;;;;;;21.59;22.14;94359.53;5041978;28;20086;-44
2021/03/31 08:18:27;;;;;;;1.27;1.17;;;;;;;21.93;21.26;94349.16;5052227;28;20049;-44
2021/03/31 08:20:54;;;;;;;0.98;0.98;;;;;;;21.12;22.07;94358.41;5053041;28;20041;-45
2021/03/31 08:23:45;;;;;;;2.20;1.75;;;;;;;22.48;19.75;94352.09;5051302;28;20029;-46
2021/03/31 08:26:29;;;;;;;2.47;2.28;;;;;;;23.57;19.92;94350.47;5042845;28;20029;-46
2021/03/31 08:28:55;;;;;;;1.67;1.58;;;;;;;24.27;18.99;94342.66;5049093;28;20020;-45
2021/03/31 08:31:29;;;;;;;1.65;1.55;;;;;;;23.71;20.09;94351.34;5044485;28;20103;-49
2021/03/31 08:33:55;;;;;;;1.45;1.35;;;;;;;23.52;18.23;94354.41;5047211;28;20047;-50
2021/03/31 08:36:21;;;;;;;2.15;1.85;;;;;;;22.68;20.79;94349.13;5039948;28;20108;-49
2021/03/31 08:38:54;;;;;;;1.85;1.73;;;;;;;22.88;19.56;94350.41;5020266;28;20526;-47
2021/03/31 08:41:23;;;;;;;1.63;1.25;;;;;;;23.13;18.67;94347.75;5049396;28;20025;-46
2021/03/31 08:43:49;;;;;;;1.65;1.05;;;;;;;23.45;19.72;94334.94;5043852;28;20028;-46
2021/03/31 08:46:31;;;;;;;3.10;1.35;;;;;;;22.59;19.57;94340.16;5045415;28;20466;-49
2021/03/31 08:48:57;;;;;;;4.65;2.20;;;;;;;23.05;19.69;94344.44;5051160;28;20048;-50
2021/03/31 08:51:23;;;;;;;1.63;1.15;;;;;;;23.92;19.25;94325.78;5051867;28;20090;-46
2021/03/31 08:53:49;;;;;;;1.25;1.15;;;;;;;24.10;18.53;94335.31;5045782;28;20116;-47
2021/03/31 08:56:19;;;;;;;3.47;1.70;;;;;;;24.00;20.13;94328.34;5050737;28;20060;-46
2021/03/31 08:58:47;;;;;;;2.13;1.92;;;;;;;24.24;20.01;94332.59;5051147;28;20090;-43
2021/03/31 09:01:14;;;;;;;2.25;1.38;;;;;;;24.03;17.62;94327.13;5050342;28;20107;-44
2021/03/31 09:03:39;;;;;;;1.42;1.33;;;;;;;21.47;18.73;94332.69;5046300;28;20551;-46
2021/03/31 09:06:05;;;;;;;2.03;1.77;;;;;;;21.93;19.53;94327.38;5051700;28;20024;-48
2021/03/31 09:08:31;;;;;;;2.30;1.67;;;;;;;21.52;21.48;94323.19;5040136;28;20068;-54
2021/03/31 09:11:03;;;;;;;2.53;1.27;;;;;;;21.27;19.90;94323.63;5051651;28;20063;-55
2021/03/31 09:13:31;;;;;;;1.42;1.33;;;;;;;19.99;20.64;94312.38;5051683;28;20091;-54
2021/03/31 09:15:58;;;;;;;2.17;1.50;;;;;;;20.25;22.34;94319.91;5050851;28;20544;-54
2021/03/31 09:18:24;;;;;;;2.25;1.98;;;;;;;19.79;20.91;94320.03;5052063;28;20041;-51
2021/03/31 09:20:50;;;;;;;2.00;1.75;;;;;;;18.48;23.29;94331.63;5050081;28;20021;-49
2021/03/31 09:23:24;;;;;;;1.45;1.35;;;;;;;19.33;22.28;94292.09;5047852;28;20025;-49
2021/03/31 09:26:04;;;;;;;1.83;1.73;;;;;;;20.78;23.53;94304.72;5048270;28;20041;-47
2021/03/31 09:28:30;;;;;;;2.70;1.92;;;;;;;20.83;21.27;94315.66;5041755;28;20425;-52
2021/03/31 09:31:12;;;;;;;3.30;1.00;;;;;;;20.08;21.87;94314.41;5042463;28;20103;-53
2021/03/31 09:33:44;;;;;;;1.85;1.55;;;;;;;18.72;22.97;94316.75;5028483;28;20021;-44
2021/03/31 09:36:17;;;;;;;2.20;2.00;;;;;;;19.40;24.00;94313.66;5039122;28;20048;-46
2021/03/31 09:38:42;;;;;;;1.13;1.02;;;;;;;18.54;23.22;94309.75;5048860;28;20104;-47
2021/03/31 09:41:08;;;;;;;2.50;1.98;;;;;;;18.59;24.19;94303.91;5049392;28;20434;-45
2021/03/31 09:43:35;;;;;;;1.67;1.58;;;;;;;18.99;23.48;94311.13;5049130;28;20759;-45
2021/03/31 09:46:00;;;;;;;3.97;1.95;;;;;;;19.77;23.62;94299.53;5048952;28;20151;-47
2021/03/31 09:48:26;;;;;;;6.63;2.72;;;;;;;20.50;23.49;94295.06;5049560;28;20108;-43
2021/03/31 09:50:53;;;;;;;1.33;1.23;;;;;;;21.38;21.08;94294.13;5051221;28;20021;-46
2021/03/31 09:53:22;;;;;;;2.08;1.42;;;;;;;21.50;20.54;94292.16;5051022;28;20021;-44
2021/03/31 09:55:48;;;;;;;1.48;1.38;;;;;;;21.87;19.87;94276.38;5030604;28;20037;-44
2021/03/31 09:58:13;;;;;;;0.77;0.77;;;;;;;20.06;20.90;94294.66;5014474;28;20024;-46
2021/03/31 10:00:40;;;;;;;1.95;1.77;;;;;;;17.98;23.01;94297.59;5014257;28;20494;-46
2021/03/31 10:03:07;;;;;;;1.40;1.30;;;;;;;17.57;24.63;94292.84;5014681;28;20026;-43
2021/03/31 10:05:33;;;;;;;2.78;1.85;;;;;;;18.25;26.26;94287.19;5045016;28;20076;-44
2021/03/31 10:08:06;;;;;;;3.28;1.83;;;;;;;17.72;24.09;94281.50;5049336;28;20109;-45
2021/03/31 10:10:45;;;;;;;1.00;0.85;;;;;;;16.15;25.82;94282.22;5048595;28;20701;-44
2021/03/31 10:13:12;;;;;;;;;;;;;;;15.10;26.94;94276.44;5050005;28;20033;-45
2021/03/31 10:15:41;;;;;;;1.63;1.00;;;;;;;15.63;26.28;94265.19;5049437;28;19908;-43
2021/03/31 10:18:06;;;;;;;0.80;0.80;;;;;;;16.18;27.36;94265.09;5049607;28;20516;-44
2021/03/31 10:20:37;;;;;;;2.20;1.77;;;;;;;16.30;27.66;94245.91;5031855;28;20112;-46
2021/03/31 10:23:03;;;;;;;4.53;0.80;;;;;;;16.86;28.85;94255.56;5051579;28;20041;-45
2021/03/31 10:25:30;;;;;;;0.63;0.63;;;;;;;18.00;24.28;94248.19;5051552;28;20021;-43
2021/03/31 10:27:58;;;;;;;3.05;1.95;;;;;;;18.84;25.99;94250.56;5051702;28;20410;-46
2021/03/31 10:30:28;;;;;;;1.23;1.17;;;;;;;18.23;22.41;94247.16;5051719;28;20025;-43
2021/03/31 10:32:54;;;;;;;1.48;1.13;;;;;;;18.15;21.83;94241.66;5051216;28;20032;-44
2021/03/31 10:35:40;;;;;;;1.55;0.95;;;;;;;18.58;22.73;94240.88;5051173;28;20025;-44
2021/03/31 10:38:08;;;;;;;0.65;0.65;;;;;;;18.38;24.17;94244.16;5050991;28;20448;-45
2021/03/31 10:48:54;;;;;;;0.40;0.40;;;;;;;19.36;21.29;94231.41;5040344;28;20086;-46
2021/03/31 10:54:15;;;;;;;0.95;0.70;;;;;;;21.05;20.07;94226.66;5055614;28;20032;-43
2021/03/31 10:56:49;;;;;;;1.30;1.15;;;;;;;19.31;20.56;94215.59;5055177;28;20025;-47
2021/03/31 10:59:15;;;;;;;1.02;1.02;;;;;;;19.71;21.37;94209.44;5038508;28;20029;-43
2021/03/31 11:02:29;;;;;;;0.73;0.73;;;;;;;20.13;19.79;94213.19;5055349;28;20028;-44
2021/03/31 11:04:55;;;;;;;2.72;1.63;;;;;;;19.19;20.41;94218.22;5054734;28;20049;-47
2021/03/31 11:07:20;;;;;;;0.73;0.73;;;;;;;20.20;23.26;94214.38;5055171;28;20512;-46
2021/03/31 11:09:49;;;;;;;1.15;1.15;;;;;;;19.73;21.61;94209.59;5054883;28;20409;-47
2021/03/31 11:12:14;;;;;;;0.55;0.55;;;;;;;18.67;22.76;94212.22;5036956;28;20082;-44
2021/03/31 11:14:39;;;;;;;1.33;1.20;;;;;;;17.84;24.09;94213.41;5054845;28;20025;-46
2021/03/31 11:17:13;;;;;;;2.00;1.77;;;;;;;17.67;23.95;94212.69;5055019;28;20027;-45
2021/03/31 11:27:58;;;;;;;1.48;1.38;;;;;;;19.16;21.99;94194.22;4974027;28;20089;-45
2021/03/31 11:30:23;;;;;;;2.58;1.75;;;;;;;19.13;22.08;94203.03;5021093;28;20461;-44
2021/03/31 11:32:49;;;;;;;0.55;0.55;;;;;;;19.42;23.97;94190.56;5054260;28;20048;-45
2021/03/31 11:35:14;;;;;;;1.10;1.05;;;;;;;19.22;22.07;94177.84;5053443;28;20036;-48
2021/03/31 11:37:40;;;;;;;0.60;0.60;;;;;;;19.74;22.08;94174.63;5054753;28;20036;-44
2021/03/31 11:40:06;;;;;;;1.50;1.40;;;;;;;19.72;20.30;94175.22;5054646;28;20512;-43
2021/03/31 11:42:31;;;;;;;0.20;0.20;;;;;;;19.15;22.56;94173.13;5054640;28;20398;-45
2021/03/31 11:44:57;;;;;;;2.78;1.05;;;;;;;18.11;22.65;94179.88;5054250;28;20032;-46
2021/03/31 11:47:22;;;;;;;1.40;1.23;;;;;;;16.55;22.29;94168.63;5053846;28;20017;-45
2021/03/31 11:49:48;;;;;;;0.60;0.60;;;;;;;16.90;22.77;94155.47;5052492;28;20021;-44
2021/03/31 11:52:13;;;;;;;0.65;0.65;;;;;;;16.44;22.13;94155.88;5053008;28;20029;-44
2021/03/31 11:54:39;;;;;;;0.43;0.43;;;;;;;16.36;25.57;94158.00;5053844;28;20070;-45
2021/03/31 11:57:04;;;;;;;0.40;0.40;;;;;;;16.39;25.50;94158.91;5054171;28;20123;-44
2021/03/31 11:59:30;;;;;;;2.40;0.80;;;;;;;16.67;26.00;94150.13;5033826;28;20399;-44
2021/03/31 12:01:56;;;;;;;0.52;0.52;;;;;;;16.92;25.43;94147.25;5036254;28;20397;-45
2021/03/31 12:04:21;;;;;;;0.57;0.57;;;;;;;16.89;25.33;94140.06;5051316;28;20568;-42
2021/03/31 12:06:47;;;;;;;0.40;0.40;;;;;;;17.20;25.28;94143.97;5051424;28;20545;-43
2021/03/31 12:09:15;;;;;;;0.52;0.40;;;;;;;17.11;25.95;94137.00;5051245;28;20032;-44
2021/03/31 12:11:41;;;;;;;1.27;1.13;;;;;;;16.82;26.03;94135.28;5051123;28;20029;-40
2021/03/31 12:14:06;;;;;;;1.17;0.98;;;;;;;16.92;26.51;94133.31;5037823;28;20490;-41